sensor_id;sensor_type;location;lat;lon;timestamp;temperature;humidity
21439;DHT22;10880;50.302;18.736;2022-12-19T00:01:15;-2.40;55.70
21439;DHT22;10880;50.302;18.736;2022-12-19T00:03:49;-2.40;55.70
21439;DHT22;10880;50.302;18.736;2022-12-19T00:06:16;-0.90;56.90
21439;DHT22;10880;50.302;18.736;2022-12-19T00:08:45;-0.40;57.10
21439;DHT22;10880;50.302;18.736;2022-12-19T00:11:13;-2.30;55.70
21439;DHT22;10880;50.302;18.736;2022-12-19T00:13:40;-2.30;55.70
21439;DHT22;10880;50.302;18.736;2022-12-19T00:16:16;-2.20;55.70
21439;DHT22;10880;50.302;18.736;2022-12-19T00:18:45;-2.40;55.60
21439;DHT22;10880;50.302;18.736;2022-12-19T00:21:16;-2.20;55.70
21439;DHT22;10880;50.302;18.736;2022-12-19T00:23:43;-2.10;56.20
21439;DHT22;10880;50.302;18.736;2022-12-19T00:28:43;-2.10;55.70
21439;DHT22;10880;50.302;18.736;2022-12-19T00:31:10;-2.10;55.60
21439;DHT22;10880;50.302;18.736;2022-12-19T00:33:36;-0.50;56.50
21439;DHT22;10880;50.302;18.736;2022-12-19T00:36:06;-2.00;55.60
21439;DHT22;10880;50.302;18.736;2022-12-19T00:38:33;-2.00;55.60
21439;DHT22;10880;50.302;18.736;2022-12-19T00:41:14;-1.50;56.30
21439;DHT22;10880;50.302;18.736;2022-12-19T00:43:41;-2.00;55.50
21439;DHT22;10880;50.302;18.736;2022-12-19T00:46:14;-2.00;55.50
21439;DHT22;10880;50.302;18.736;2022-12-19T00:48:41;-2.00;55.50
21439;DHT22;10880;50.302;18.736;2022-12-19T00:51:16;-1.90;55.60
21439;DHT22;10880;50.302;18.736;2022-12-19T00:53:44;-2.00;56.10
21439;DHT22;10880;50.302;18.736;2022-12-19T00:56:14;-2.00;55.50
21439;DHT22;10880;50.302;18.736;2022-12-19T00:58:41;-0.20;57.00
21439;DHT22;10880;50.302;18.736;2022-12-19T01:01:19;-2.00;55.50
21439;DHT22;10880;50.302;18.736;2022-12-19T01:03:46;-2.00;55.60
21439;DHT22;10880;50.302;18.736;2022-12-19T01:06:13;-2.10;55.50
21439;DHT22;10880;50.302;18.736;2022-12-19T01:08:40;-2.10;55.50
21439;DHT22;10880;50.302;18.736;2022-12-19T01:11:07;-2.10;55.60
21439;DHT22;10880;50.302;18.736;2022-12-19T01:13:36;-2.00;55.80
21439;DHT22;10880;50.302;18.736;2022-12-19T01:16:05;-2.00;55.70
21439;DHT22;10880;50.302;18.736;2022-12-19T01:18:33;-2.00;56.30
21439;DHT22;10880;50.302;18.736;2022-12-19T01:21:01;-2.00;55.70
21439;DHT22;10880;50.302;18.736;2022-12-19T01:23:29;-2.00;55.70
21439;DHT22;10880;50.302;18.736;2022-12-19T01:25:56;-2.00;55.80
21439;DHT22;10880;50.302;18.736;2022-12-19T01:28:23;-1.10;56.50
21439;DHT22;10880;50.302;18.736;2022-12-19T01:30:50;-2.00;55.70
21439;DHT22;10880;50.302;18.736;2022-12-19T01:33:18;-2.00;55.70
21439;DHT22;10880;50.302;18.736;2022-12-19T01:35:47;-2.00;55.70
21439;DHT22;10880;50.302;18.736;2022-12-19T01:38:16;-2.00;55.80
21439;DHT22;10880;50.302;18.736;2022-12-19T01:41:09;-2.00;55.70
21439;DHT22;10880;50.302;18.736;2022-12-19T01:43:55;-2.00;55.70
21439;DHT22;10880;50.302;18.736;2022-12-19T01:46:41;-2.00;56.20
21439;DHT22;10880;50.302;18.736;2022-12-19T01:49:20;-2.00;56.20
21439;DHT22;10880;50.302;18.736;2022-12-19T01:51:52;-2.00;56.30
21439;DHT22;10880;50.302;18.736;2022-12-19T01:54:23;-2.00;55.70
21439;DHT22;10880;50.302;18.736;2022-12-19T01:56:53;-2.10;55.70
21439;DHT22;10880;50.302;18.736;2022-12-19T01:59:28;-2.10;55.70
21439;DHT22;10880;50.302;18.736;2022-12-19T02:02:10;-2.10;55.70
21439;DHT22;10880;50.302;18.736;2022-12-19T02:04:40;-2.10;56.20
21439;DHT22;10880;50.302;18.736;2022-12-19T02:07:07;-1.00;56.70
21439;DHT22;10880;50.302;18.736;2022-12-19T02:09:35;-2.10;55.70
21439;DHT22;10880;50.302;18.736;2022-12-19T02:14:35;-2.10;55.70
21439;DHT22;10880;50.302;18.736;2022-12-19T02:25:18;-2.10;55.60
21439;DHT22;10880;50.302;18.736;2022-12-19T02:33:15;-2.10;55.60
21439;DHT22;10880;50.302;18.736;2022-12-19T02:35:56;-2.10;55.60
21439;DHT22;10880;50.302;18.736;2022-12-19T02:39:02;-2.10;55.50
21439;DHT22;10880;50.302;18.736;2022-12-19T02:41:27;-2.10;56.10
21439;DHT22;10880;50.302;18.736;2022-12-19T02:44:37;-2.10;55.50
21439;DHT22;10880;50.302;18.736;2022-12-19T02:47:03;-2.10;56.10
21439;DHT22;10880;50.302;18.736;2022-12-19T02:49:34;-2.10;55.50
21439;DHT22;10880;50.302;18.736;2022-12-19T02:57:22;-2.10;55.40
21439;DHT22;10880;50.302;18.736;2022-12-19T03:00:03;-2.10;55.90
21439;DHT22;10880;50.302;18.736;2022-12-19T03:05:53;-2.10;55.70
21439;DHT22;10880;50.302;18.736;2022-12-19T03:11:14;-2.20;55.70
21439;DHT22;10880;50.302;18.736;2022-12-19T03:13:59;-2.20;55.30
21439;DHT22;10880;50.302;18.736;2022-12-19T03:16:27;-2.20;55.60
21439;DHT22;10880;50.302;18.736;2022-12-19T03:18:55;-2.10;55.40
21439;DHT22;10880;50.302;18.736;2022-12-19T03:21:28;-2.20;55.00
21439;DHT22;10880;50.302;18.736;2022-12-19T03:23:57;-2.30;54.90
21439;DHT22;10880;50.302;18.736;2022-12-19T03:26:27;-2.30;55.00
21439;DHT22;10880;50.302;18.736;2022-12-19T03:31:35;-2.30;55.50
21439;DHT22;10880;50.302;18.736;2022-12-19T03:34:09;-2.30;55.00
21439;DHT22;10880;50.302;18.736;2022-12-19T03:36:41;-2.40;54.90
21439;DHT22;10880;50.302;18.736;2022-12-19T03:39:10;-2.30;54.90
21439;DHT22;10880;50.302;18.736;2022-12-19T03:41:38;-2.40;54.80
21439;DHT22;10880;50.302;18.736;2022-12-19T03:44:27;-2.40;54.60
21439;DHT22;10880;50.302;18.736;2022-12-19T03:49:36;-2.50;54.50
21439;DHT22;10880;50.302;18.736;2022-12-19T03:52:20;-2.50;54.50
21439;DHT22;10880;50.302;18.736;2022-12-19T03:57:34;-2.50;55.20
21439;DHT22;10880;50.302;18.736;2022-12-19T04:00:13;-2.30;55.20
21439;DHT22;10880;50.302;18.736;2022-12-19T04:02:43;-1.00;55.90
21439;DHT22;10880;50.302;18.736;2022-12-19T04:05:17;-1.50;55.60
21439;DHT22;10880;50.302;18.736;2022-12-19T04:07:45;-2.70;54.70
21439;DHT22;10880;50.302;18.736;2022-12-19T04:10:17;-2.60;54.70
21439;DHT22;10880;50.302;18.736;2022-12-19T04:12:47;-2.10;55.50
21439;DHT22;10880;50.302;18.736;2022-12-19T04:15:15;-2.70;54.70
21439;DHT22;10880;50.302;18.736;2022-12-19T04:17:46;-2.70;54.70
21439;DHT22;10880;50.302;18.736;2022-12-19T04:20:16;-2.70;54.80
21439;DHT22;10880;50.302;18.736;2022-12-19T04:25:17;-2.70;54.90
21439;DHT22;10880;50.302;18.736;2022-12-19T04:27:49;-2.70;55.00
21439;DHT22;10880;50.302;18.736;2022-12-19T04:30:17;-1.70;56.00
21439;DHT22;10880;50.302;18.736;2022-12-19T04:32:45;-2.30;55.70
21439;DHT22;10880;50.302;18.736;2022-12-19T04:35:12;-2.70;55.00
21439;DHT22;10880;50.302;18.736;2022-12-19T04:37:39;-2.70;55.00
21439;DHT22;10880;50.302;18.736;2022-12-19T04:40:06;-2.70;55.00
21439;DHT22;10880;50.302;18.736;2022-12-19T04:42:33;-2.70;55.10
21439;DHT22;10880;50.302;18.736;2022-12-19T04:45:00;-2.70;55.10
21439;DHT22;10880;50.302;18.736;2022-12-19T04:47:27;-2.70;55.20
21439;DHT22;10880;50.302;18.736;2022-12-19T04:49:53;-2.70;55.10
21439;DHT22;10880;50.302;18.736;2022-12-19T04:52:19;-2.70;55.10
21439;DHT22;10880;50.302;18.736;2022-12-19T04:57:12;-2.60;55.00
21439;DHT22;10880;50.302;18.736;2022-12-19T04:59:39;-2.60;54.90
21439;DHT22;10880;50.302;18.736;2022-12-19T05:02:05;-2.60;54.80
21439;DHT22;10880;50.302;18.736;2022-12-19T05:04:32;-2.70;54.70
21439;DHT22;10880;50.302;18.736;2022-12-19T05:06:58;-2.70;54.70
21439;DHT22;10880;50.302;18.736;2022-12-19T05:09:25;-2.70;54.60
21439;DHT22;10880;50.302;18.736;2022-12-19T05:11:51;-2.70;54.60
21439;DHT22;10880;50.302;18.736;2022-12-19T05:14:18;-2.70;54.50
21439;DHT22;10880;50.302;18.736;2022-12-19T05:19:11;-2.80;54.50
21439;DHT22;10880;50.302;18.736;2022-12-19T05:21:37;-2.80;54.40
21439;DHT22;10880;50.302;18.736;2022-12-19T05:26:30;-2.80;54.60
21439;DHT22;10880;50.302;18.736;2022-12-19T05:28:57;-2.80;54.50
21439;DHT22;10880;50.302;18.736;2022-12-19T05:31:23;-2.80;54.50
21439;DHT22;10880;50.302;18.736;2022-12-19T05:33:50;-2.90;54.40
21439;DHT22;10880;50.302;18.736;2022-12-19T05:36:17;-2.90;54.50
21439;DHT22;10880;50.302;18.736;2022-12-19T05:41:15;-2.90;54.40
21439;DHT22;10880;50.302;18.736;2022-12-19T05:43:45;-2.90;54.90
21439;DHT22;10880;50.302;18.736;2022-12-19T05:46:14;-2.90;54.30
21439;DHT22;10880;50.302;18.736;2022-12-19T05:48:40;-0.50;55.50
21439;DHT22;10880;50.302;18.736;2022-12-19T05:51:08;-2.10;55.00
21439;DHT22;10880;50.302;18.736;2022-12-19T05:53:35;-3.00;54.20
21439;DHT22;10880;50.302;18.736;2022-12-19T05:56:13;-3.00;54.20
21439;DHT22;10880;50.302;18.736;2022-12-19T05:58:41;-3.00;54.70
21439;DHT22;10880;50.302;18.736;2022-12-19T06:03:37;-3.10;54.10
21439;DHT22;10880;50.302;18.736;2022-12-19T06:06:05;-3.10;54.10
21439;DHT22;10880;50.302;18.736;2022-12-19T06:08:32;-3.10;54.20
21439;DHT22;10880;50.302;18.736;2022-12-19T06:11:00;-3.10;54.20
21439;DHT22;10880;50.302;18.736;2022-12-19T06:13:27;-3.10;54.20
21439;DHT22;10880;50.302;18.736;2022-12-19T06:16:06;-3.10;54.20
21439;DHT22;10880;50.302;18.736;2022-12-19T06:18:33;-3.10;54.80
21439;DHT22;10880;50.302;18.736;2022-12-19T06:21:01;-3.20;54.10
21439;DHT22;10880;50.302;18.736;2022-12-19T06:23:29;-3.20;53.90
21439;DHT22;10880;50.302;18.736;2022-12-19T06:25:57;-3.20;54.00
21439;DHT22;10880;50.302;18.736;2022-12-19T06:28:25;-3.20;53.80
21439;DHT22;10880;50.302;18.736;2022-12-19T06:30:54;-3.30;53.70
21439;DHT22;10880;50.302;18.736;2022-12-19T06:33:21;-3.30;53.60
21439;DHT22;10880;50.302;18.736;2022-12-19T06:38:16;-3.40;53.40
21439;DHT22;10880;50.302;18.736;2022-12-19T06:40:43;-3.50;53.50
21439;DHT22;10880;50.302;18.736;2022-12-19T06:43:27;-2.80;54.20
21439;DHT22;10880;50.302;18.736;2022-12-19T06:45:56;-3.50;53.60
21439;DHT22;10880;50.302;18.736;2022-12-19T06:48:23;-3.50;53.50
21439;DHT22;10880;50.302;18.736;2022-12-19T06:50:51;-3.60;53.50
21439;DHT22;10880;50.302;18.736;2022-12-19T06:53:18;-3.60;53.30
21439;DHT22;10880;50.302;18.736;2022-12-19T06:55:46;-3.60;53.30
21439;DHT22;10880;50.302;18.736;2022-12-19T06:58:12;-3.70;53.40
21439;DHT22;10880;50.302;18.736;2022-12-19T07:00:39;-3.70;53.50
21439;DHT22;10880;50.302;18.736;2022-12-19T07:03:07;-3.70;53.70
21439;DHT22;10880;50.302;18.736;2022-12-19T07:08:03;-3.70;53.60
21439;DHT22;10880;50.302;18.736;2022-12-19T07:10:29;-3.70;53.70
21439;DHT22;10880;50.302;18.736;2022-12-19T07:12:55;-3.80;53.60
21439;DHT22;10880;50.302;18.736;2022-12-19T07:15:23;-3.80;53.40
21439;DHT22;10880;50.302;18.736;2022-12-19T07:17:49;-3.80;53.50
21439;DHT22;10880;50.302;18.736;2022-12-19T07:20:18;-3.80;53.40
21439;DHT22;10880;50.302;18.736;2022-12-19T07:22:46;-3.80;53.40
21439;DHT22;10880;50.302;18.736;2022-12-19T07:25:13;-3.80;53.50
21439;DHT22;10880;50.302;18.736;2022-12-19T07:27:43;-3.80;53.60
21439;DHT22;10880;50.302;18.736;2022-12-19T07:30:10;-3.90;53.60
21439;DHT22;10880;50.302;18.736;2022-12-19T07:32:37;-3.80;54.10
21439;DHT22;10880;50.302;18.736;2022-12-19T07:35:08;-3.80;53.70
21439;DHT22;10880;50.302;18.736;2022-12-19T07:37:34;-3.80;54.10
21439;DHT22;10880;50.302;18.736;2022-12-19T07:40:05;-3.80;53.80
21439;DHT22;10880;50.302;18.736;2022-12-19T07:45:01;-3.80;53.80
21439;DHT22;10880;50.302;18.736;2022-12-19T07:47:27;-3.80;53.90
21439;DHT22;10880;50.302;18.736;2022-12-19T07:49:54;-3.70;54.10
21439;DHT22;10880;50.302;18.736;2022-12-19T07:54:47;-3.70;54.20
21439;DHT22;10880;50.302;18.736;2022-12-19T07:57:15;-3.80;54.20
21439;DHT22;10880;50.302;18.736;2022-12-19T07:59:41;-3.60;54.30
21439;DHT22;10880;50.302;18.736;2022-12-19T08:02:08;-3.60;54.40
21439;DHT22;10880;50.302;18.736;2022-12-19T08:04:35;-3.70;54.40
21439;DHT22;10880;50.302;18.736;2022-12-19T08:07:01;-3.50;54.50
21439;DHT22;10880;50.302;18.736;2022-12-19T08:09:29;-3.40;54.60
21439;DHT22;10880;50.302;18.736;2022-12-19T08:11:57;-3.30;54.80
21439;DHT22;10880;50.302;18.736;2022-12-19T08:14:24;-3.30;54.80
21439;DHT22;10880;50.302;18.736;2022-12-19T08:16:50;-3.30;54.80
21439;DHT22;10880;50.302;18.736;2022-12-19T08:19:17;-3.20;54.80
21439;DHT22;10880;50.302;18.736;2022-12-19T08:21:43;-3.00;55.00
21439;DHT22;10880;50.302;18.736;2022-12-19T08:24:10;-3.00;55.00
21439;DHT22;10880;50.302;18.736;2022-12-19T08:26:37;-3.00;55.20
21439;DHT22;10880;50.302;18.736;2022-12-19T08:29:04;-3.00;55.00
21439;DHT22;10880;50.302;18.736;2022-12-19T08:31:30;-2.80;55.40
21439;DHT22;10880;50.302;18.736;2022-12-19T08:33:57;-2.90;55.10
21439;DHT22;10880;50.302;18.736;2022-12-19T08:36:23;-2.80;55.40
21439;DHT22;10880;50.302;18.736;2022-12-19T08:38:51;-2.70;55.30
21439;DHT22;10880;50.302;18.736;2022-12-19T08:41:17;-2.80;55.30
21439;DHT22;10880;50.302;18.736;2022-12-19T08:43:50;-2.70;55.40
21439;DHT22;10880;50.302;18.736;2022-12-19T08:46:17;-2.60;55.60
21439;DHT22;10880;50.302;18.736;2022-12-19T08:48:44;-2.60;56.10
21439;DHT22;10880;50.302;18.736;2022-12-19T08:51:12;-2.50;55.70
21439;DHT22;10880;50.302;18.736;2022-12-19T08:53:40;-2.20;56.40
21439;DHT22;10880;50.302;18.736;2022-12-19T08:56:18;-1.50;56.80
21439;DHT22;10880;50.302;18.736;2022-12-19T08:58:45;-2.30;55.90
21439;DHT22;10880;50.302;18.736;2022-12-19T09:01:15;-2.30;55.90
21439;DHT22;10880;50.302;18.736;2022-12-19T09:06:12;-2.10;56.00
21439;DHT22;10880;50.302;18.736;2022-12-19T09:08:40;-2.00;56.60
21439;DHT22;10880;50.302;18.736;2022-12-19T09:11:12;-2.10;56.10
21439;DHT22;10880;50.302;18.736;2022-12-19T09:13:41;-1.90;56.70
21439;DHT22;10880;50.302;18.736;2022-12-19T09:16:19;-1.70;56.30
21439;DHT22;10880;50.302;18.736;2022-12-19T09:18:48;-1.80;56.80
21439;DHT22;10880;50.302;18.736;2022-12-19T09:21:16;1.00;58.20
21439;DHT22;10880;50.302;18.736;2022-12-19T09:23:50;-1.60;56.90
21439;DHT22;10880;50.302;18.736;2022-12-19T09:26:18;-1.50;56.50
21439;DHT22;10880;50.302;18.736;2022-12-19T09:28:45;-1.50;56.60
21439;DHT22;10880;50.302;18.736;2022-12-19T09:31:15;-1.30;56.70
21439;DHT22;10880;50.302;18.736;2022-12-19T09:33:42;-0.80;57.50
21439;DHT22;10880;50.302;18.736;2022-12-19T09:36:14;-1.20;56.80
21439;DHT22;10880;50.302;18.736;2022-12-19T09:38:42;-1.20;56.80
21439;DHT22;10880;50.302;18.736;2022-12-19T09:47:00;-0.90;57.50
21439;DHT22;10880;50.302;18.736;2022-12-19T09:49:40;-0.80;57.50
21439;DHT22;10880;50.302;18.736;2022-12-19T09:52:37;-0.70;57.50
21439;DHT22;10880;50.302;18.736;2022-12-19T09:55:15;-1.40;56.20
21439;DHT22;10880;50.302;18.736;2022-12-19T10:00:35;-0.40;56.90
21439;DHT22;10880;50.302;18.736;2022-12-19T10:08:45;-0.30;57.40
21439;DHT22;10880;50.302;18.736;2022-12-19T10:14:04;-0.10;57.00
21439;DHT22;10880;50.302;18.736;2022-12-19T10:28:33;0.30;57.40
21439;DHT22;10880;50.302;18.736;2022-12-19T10:34:03;0.40;57.70
21439;DHT22;10880;50.302;18.736;2022-12-19T10:36:38;0.30;57.70
21439;DHT22;10880;50.302;18.736;2022-12-19T10:41:51;0.60;57.30
21439;DHT22;10880;50.302;18.736;2022-12-19T10:44:21;0.80;57.80
21439;DHT22;10880;50.302;18.736;2022-12-19T10:46:48;0.80;57.80
21439;DHT22;10880;50.302;18.736;2022-12-19T10:49:18;-1.10;56.40
21439;DHT22;10880;50.302;18.736;2022-12-19T10:52:04;0.90;58.00
21439;DHT22;10880;50.302;18.736;2022-12-19T11:05:24;1.20;57.60
21439;DHT22;10880;50.302;18.736;2022-12-19T11:10:48;1.40;57.70
21439;DHT22;10880;50.302;18.736;2022-12-19T11:13:28;1.50;58.20
21439;DHT22;10880;50.302;18.736;2022-12-19T11:15:56;1.60;57.70
21439;DHT22;10880;50.302;18.736;2022-12-19T11:18:25;1.60;57.70
21439;DHT22;10880;50.302;18.736;2022-12-19T11:21:04;1.70;57.70
21439;DHT22;10880;50.302;18.736;2022-12-19T11:23:33;1.80;58.20
21439;DHT22;10880;50.302;18.736;2022-12-19T11:26:02;1.90;58.20
21439;DHT22;10880;50.302;18.736;2022-12-19T11:28:37;1.90;58.10
21439;DHT22;10880;50.302;18.736;2022-12-19T11:31:09;2.00;57.70
21439;DHT22;10880;50.302;18.736;2022-12-19T11:33:36;2.00;57.70
21439;DHT22;10880;50.302;18.736;2022-12-19T11:36:04;2.10;57.70
21439;DHT22;10880;50.302;18.736;2022-12-19T11:38:42;2.20;57.70
21439;DHT22;10880;50.302;18.736;2022-12-19T11:41:44;2.20;58.20
21439;DHT22;10880;50.302;18.736;2022-12-19T11:44:21;2.30;57.60
21439;DHT22;10880;50.302;18.736;2022-12-19T11:47:12;2.30;57.60
21439;DHT22;10880;50.302;18.736;2022-12-19T11:49:52;2.40;58.10
21439;DHT22;10880;50.302;18.736;2022-12-19T11:52:42;2.40;58.00
21439;DHT22;10880;50.302;18.736;2022-12-19T11:55:22;2.50;58.10
21439;DHT22;10880;50.302;18.736;2022-12-19T11:57:51;2.60;58.10
21439;DHT22;10880;50.302;18.736;2022-12-19T12:00:22;2.60;58.00
21439;DHT22;10880;50.302;18.736;2022-12-19T12:05:48;2.70;58.20
21439;DHT22;10880;50.302;18.736;2022-12-19T12:11:03;2.80;57.80
21439;DHT22;10880;50.302;18.736;2022-12-19T12:13:47;2.80;58.20
21439;DHT22;10880;50.302;18.736;2022-12-19T12:16:22;2.90;57.80
21439;DHT22;10880;50.302;18.736;2022-12-19T12:25:04;3.00;57.80
21439;DHT22;10880;50.302;18.736;2022-12-19T12:30:25;3.10;57.70
21439;DHT22;10880;50.302;18.736;2022-12-19T12:35:49;3.20;57.80
21439;DHT22;10880;50.302;18.736;2022-12-19T12:41:25;3.20;57.80
21439;DHT22;10880;50.302;18.736;2022-12-19T12:44:14;3.30;58.40
21439;DHT22;10880;50.302;18.736;2022-12-19T12:47:00;3.30;57.90
21439;DHT22;10880;50.302;18.736;2022-12-19T12:49:41;3.30;58.40
21439;DHT22;10880;50.302;18.736;2022-12-19T12:52:26;3.40;58.40
21439;DHT22;10880;50.302;18.736;2022-12-19T12:54:55;3.40;58.50
21439;DHT22;10880;50.302;18.736;2022-12-19T13:00:19;3.40;58.00
21439;DHT22;10880;50.302;18.736;2022-12-19T13:03:05;3.40;58.50
21439;DHT22;10880;50.302;18.736;2022-12-19T13:05:53;3.30;58.40
21439;DHT22;10880;50.302;18.736;2022-12-19T13:08:44;3.50;58.40
21439;DHT22;10880;50.302;18.736;2022-12-19T13:11:12;3.50;58.40
21439;DHT22;10880;50.302;18.736;2022-12-19T13:14:02;3.50;58.30
21439;DHT22;10880;50.302;18.736;2022-12-19T13:19:22;3.50;58.00
21439;DHT22;10880;50.302;18.736;2022-12-19T13:24:46;3.60;58.00
21439;DHT22;10880;50.302;18.736;2022-12-19T13:30:12;3.60;58.00
21439;DHT22;10880;50.302;18.736;2022-12-19T13:40:24;3.60;57.80
21439;DHT22;10880;50.302;18.736;2022-12-19T13:46:00;3.60;58.20
21439;DHT22;10880;50.302;18.736;2022-12-19T13:48:40;3.70;57.90
21439;DHT22;10880;50.302;18.736;2022-12-19T13:51:10;3.70;58.40
21439;DHT22;10880;50.302;18.736;2022-12-19T13:53:38;3.60;57.80
21439;DHT22;10880;50.302;18.736;2022-12-19T13:56:15;3.70;58.30
21439;DHT22;10880;50.302;18.736;2022-12-19T13:58:52;3.70;58.40
21439;DHT22;10880;50.302;18.736;2022-12-19T14:01:26;3.70;58.40
21439;DHT22;10880;50.302;18.736;2022-12-19T14:03:56;3.70;58.30
21439;DHT22;10880;50.302;18.736;2022-12-19T14:06:38;3.70;58.30
21439;DHT22;10880;50.302;18.736;2022-12-19T14:09:08;3.70;58.30
21439;DHT22;10880;50.302;18.736;2022-12-19T14:11:42;3.70;58.20
21439;DHT22;10880;50.302;18.736;2022-12-19T14:14:14;3.70;58.20
21439;DHT22;10880;50.302;18.736;2022-12-19T14:17:14;3.70;58.10
21439;DHT22;10880;50.302;18.736;2022-12-19T14:19:44;3.70;58.20
21439;DHT22;10880;50.302;18.736;2022-12-19T14:22:20;3.70;57.70
21439;DHT22;10880;50.302;18.736;2022-12-19T14:25:03;3.70;58.10
21439;DHT22;10880;50.302;18.736;2022-12-19T14:27:36;3.70;58.10
21439;DHT22;10880;50.302;18.736;2022-12-19T14:30:06;3.60;58.00
21439;DHT22;10880;50.302;18.736;2022-12-19T14:32:33;3.60;57.60
21439;DHT22;10880;50.302;18.736;2022-12-19T14:35:05;3.60;57.60
21439;DHT22;10880;50.302;18.736;2022-12-19T14:37:37;3.60;58.00
21439;DHT22;10880;50.302;18.736;2022-12-19T14:40:29;3.50;58.00
21439;DHT22;10880;50.302;18.736;2022-12-19T14:46:24;3.50;58.20
21439;DHT22;10880;50.302;18.736;2022-12-19T14:48:55;3.50;58.10
21439;DHT22;10880;50.302;18.736;2022-12-19T14:51:31;3.40;58.00
21439;DHT22;10880;50.302;18.736;2022-12-19T14:54:17;3.40;58.20
21439;DHT22;10880;50.302;18.736;2022-12-19T14:56:55;3.40;58.10
21439;DHT22;10880;50.302;18.736;2022-12-19T14:59:32;3.40;58.20
21439;DHT22;10880;50.302;18.736;2022-12-19T15:07:21;3.30;58.30
21439;DHT22;10880;50.302;18.736;2022-12-19T15:12:26;3.30;57.70
21439;DHT22;10880;50.302;18.736;2022-12-19T15:15:24;3.30;57.80
21439;DHT22;10880;50.302;18.736;2022-12-19T15:17:53;3.30;58.30
21439;DHT22;10880;50.302;18.736;2022-12-19T15:20:20;6.50;59.40
21439;DHT22;10880;50.302;18.736;2022-12-19T15:22:47;3.20;57.80
21439;DHT22;10880;50.302;18.736;2022-12-19T15:25:15;3.20;57.80
21439;DHT22;10880;50.302;18.736;2022-12-19T15:27:43;3.20;57.80
21439;DHT22;10880;50.302;18.736;2022-12-19T15:30:21;3.20;58.30
21439;DHT22;10880;50.302;18.736;2022-12-19T15:32:49;3.20;58.10
21439;DHT22;10880;50.302;18.736;2022-12-19T15:35:17;3.20;58.20
21439;DHT22;10880;50.302;18.736;2022-12-19T15:37:44;3.10;58.20
21439;DHT22;10880;50.302;18.736;2022-12-19T15:40:16;3.10;57.90
21439;DHT22;10880;50.302;18.736;2022-12-19T15:42:49;3.10;58.00
21439;DHT22;10880;50.302;18.736;2022-12-19T15:45:17;3.10;58.60
21439;DHT22;10880;50.302;18.736;2022-12-19T15:50:22;3.10;58.30
21439;DHT22;10880;50.302;18.736;2022-12-19T15:52:51;3.10;58.80
21439;DHT22;10880;50.302;18.736;2022-12-19T15:55:22;3.10;58.80
21439;DHT22;10880;50.302;18.736;2022-12-19T15:58:00;3.10;58.80
21439;DHT22;10880;50.302;18.736;2022-12-19T16:00:34;3.10;58.90
21439;DHT22;10880;50.302;18.736;2022-12-19T16:03:01;3.10;58.80
21439;DHT22;10880;50.302;18.736;2022-12-19T16:05:28;3.10;58.40
21439;DHT22;10880;50.302;18.736;2022-12-19T16:07:56;3.10;58.30
21439;DHT22;10880;50.302;18.736;2022-12-19T16:10:24;3.10;58.40
21439;DHT22;10880;50.302;18.736;2022-12-19T16:12:54;3.10;58.50
21439;DHT22;10880;50.302;18.736;2022-12-19T16:15:27;3.10;58.50
21439;DHT22;10880;50.302;18.736;2022-12-19T16:17:55;3.10;58.90
21439;DHT22;10880;50.302;18.736;2022-12-19T16:20:28;3.10;58.90
21439;DHT22;10880;50.302;18.736;2022-12-19T16:22:55;3.10;58.50
21439;DHT22;10880;50.302;18.736;2022-12-19T16:25:26;3.10;58.50
21439;DHT22;10880;50.302;18.736;2022-12-19T16:27:57;3.10;58.90
21439;DHT22;10880;50.302;18.736;2022-12-19T16:30:31;3.20;58.50
21439;DHT22;10880;50.302;18.736;2022-12-19T16:32:58;3.10;58.40
21439;DHT22;10880;50.302;18.736;2022-12-19T16:35:27;3.20;58.40
21439;DHT22;10880;50.302;18.736;2022-12-19T16:37:55;3.20;58.40
21439;DHT22;10880;50.302;18.736;2022-12-19T16:40:24;3.20;58.70
21439;DHT22;10880;50.302;18.736;2022-12-19T16:42:58;3.20;58.80
21439;DHT22;10880;50.302;18.736;2022-12-19T16:45:28;3.20;58.80
21439;DHT22;10880;50.302;18.736;2022-12-19T16:47:54;3.20;58.40
21439;DHT22;10880;50.302;18.736;2022-12-19T16:50:26;3.20;58.40
21439;DHT22;10880;50.302;18.736;2022-12-19T16:52:53;3.20;58.90
21439;DHT22;10880;50.302;18.736;2022-12-19T16:55:21;3.20;58.40
21439;DHT22;10880;50.302;18.736;2022-12-19T16:57:49;3.20;58.50
21439;DHT22;10880;50.302;18.736;2022-12-19T17:00:19;3.30;58.60
21439;DHT22;10880;50.302;18.736;2022-12-19T17:02:52;3.30;59.10
21439;DHT22;10880;50.302;18.736;2022-12-19T17:05:27;3.30;58.60
21439;DHT22;10880;50.302;18.736;2022-12-19T17:07:56;3.40;58.80
21439;DHT22;10880;50.302;18.736;2022-12-19T17:10:28;3.40;58.80
21439;DHT22;10880;50.302;18.736;2022-12-19T17:12:57;3.40;59.20
21439;DHT22;10880;50.302;18.736;2022-12-19T17:17:52;3.40;58.80
21439;DHT22;10880;50.302;18.736;2022-12-19T17:20:23;3.40;59.30
21439;DHT22;10880;50.302;18.736;2022-12-19T17:22:51;3.50;59.30
21439;DHT22;10880;50.302;18.736;2022-12-19T17:25:23;3.50;58.80
21439;DHT22;10880;50.302;18.736;2022-12-19T17:27:51;3.50;59.20
21439;DHT22;10880;50.302;18.736;2022-12-19T17:30:20;3.60;58.90
21439;DHT22;10880;50.302;18.736;2022-12-19T17:32:48;3.50;58.80
21439;DHT22;10880;50.302;18.736;2022-12-19T17:35:19;3.50;58.80
21439;DHT22;10880;50.302;18.736;2022-12-19T17:37:52;3.60;58.80
21439;DHT22;10880;50.302;18.736;2022-12-19T17:40:24;3.60;59.30
21439;DHT22;10880;50.302;18.736;2022-12-19T17:45:22;3.60;58.80
21439;DHT22;10880;50.302;18.736;2022-12-19T17:47:50;3.60;58.80
21439;DHT22;10880;50.302;18.736;2022-12-19T17:50:19;3.60;58.80
21439;DHT22;10880;50.302;18.736;2022-12-19T17:52:49;3.70;58.80
21439;DHT22;10880;50.302;18.736;2022-12-19T17:55:24;3.70;58.80
21439;DHT22;10880;50.302;18.736;2022-12-19T17:57:51;3.70;58.90
21439;DHT22;10880;50.302;18.736;2022-12-19T18:00:21;3.70;58.70
21439;DHT22;10880;50.302;18.736;2022-12-19T18:02:49;3.70;58.80
21439;DHT22;10880;50.302;18.736;2022-12-19T18:05:30;3.70;58.80
21439;DHT22;10880;50.302;18.736;2022-12-19T18:10:30;3.80;58.90
21439;DHT22;10880;50.302;18.736;2022-12-19T18:12:57;3.80;59.30
21439;DHT22;10880;50.302;18.736;2022-12-19T18:15:24;3.90;58.90
21439;DHT22;10880;50.302;18.736;2022-12-19T18:17:52;3.90;58.80
21439;DHT22;10880;50.302;18.736;2022-12-19T18:20:25;3.90;58.80
21439;DHT22;10880;50.302;18.736;2022-12-19T18:22:53;3.90;58.80
21439;DHT22;10880;50.302;18.736;2022-12-19T18:25:23;3.90;58.70
21439;DHT22;10880;50.302;18.736;2022-12-19T18:30:19;4.00;58.70
21439;DHT22;10880;50.302;18.736;2022-12-19T18:32:57;4.00;58.70
21439;DHT22;10880;50.302;18.736;2022-12-19T18:35:38;4.10;58.70
21439;DHT22;10880;50.302;18.736;2022-12-19T18:38:11;4.00;58.60
21439;DHT22;10880;50.302;18.736;2022-12-19T18:40:38;4.10;58.60
21439;DHT22;10880;50.302;18.736;2022-12-19T18:43:11;4.10;58.60
21439;DHT22;10880;50.302;18.736;2022-12-19T18:45:42;4.10;58.60
21439;DHT22;10880;50.302;18.736;2022-12-19T18:48:27;4.10;58.50